createdAt,value
2022-11-13T00:00:37.498Z,102085.28
2022-11-13T00:03:03.848Z,102084.44
2022-11-13T00:05:30.228Z,102083.69
2022-11-13T00:07:56.577Z,102082.00
2022-11-13T00:10:23.477Z,102080.31
2022-11-13T00:12:49.818Z,102073.22
2022-11-13T00:15:16.299Z,102083.94
2022-11-13T00:17:42.645Z,102081.38
2022-11-13T00:20:09.177Z,102076.00
2022-11-13T00:22:35.508Z,102075.13
2022-11-13T00:25:01.902Z,102075.28
2022-11-13T00:27:30.768Z,102068.19
2022-11-13T00:29:57.207Z,102060.38
2022-11-13T00:32:23.556Z,102061.38
2022-11-13T00:34:49.892Z,102066.84
2022-11-13T00:37:16.254Z,102056.25
2022-11-13T00:39:42.591Z,102057.22
2022-11-13T00:42:09.092Z,102053.69
2022-11-13T00:44:35.453Z,102052.09
2022-11-13T00:47:01.868Z,102055.75
2022-11-13T00:49:28.461Z,102054.91
2022-11-13T00:51:54.860Z,102057.59
2022-11-13T00:54:21.445Z,102054.03
2022-11-13T00:56:47.881Z,102045.28
2022-11-13T00:59:14.251Z,102053.31
2022-11-13T01:01:40.763Z,102048.91
2022-11-13T01:04:07.163Z,102051.75
2022-11-13T01:06:33.502Z,102051.84
2022-11-13T01:09:00.120Z,102044.91
2022-11-13T01:11:29.357Z,102051.25
2022-11-13T01:13:56.175Z,102047.94
2022-11-13T01:16:24.882Z,102049.88
2022-11-13T01:18:55.249Z,102051.94
2022-11-13T01:21:24.913Z,102056.72
2022-11-13T01:23:51.473Z,102062.31
2022-11-13T01:26:23.898Z,102049.13
2022-11-13T01:28:50.549Z,102051.19
2022-11-13T01:31:19.987Z,102051.44
2022-11-13T01:33:48.049Z,102054.38
2022-11-13T01:36:21.322Z,102050.94
2022-11-13T01:38:48.171Z,102047.75
2022-11-13T01:41:25.322Z,102044.34
2022-11-13T01:43:54.453Z,102048.09
2022-11-13T01:46:32.593Z,102042.00
2022-11-13T01:49:08.002Z,102039.56
2022-11-13T01:51:41.277Z,102041.53
2022-11-13T01:54:12.993Z,102038.97
2022-11-13T01:56:40.746Z,102033.00
2022-11-13T01:59:13.027Z,102031.28
2022-11-13T02:01:39.677Z,102025.16
2022-11-13T02:04:06.091Z,102020.91
2022-11-13T02:06:43.904Z,102022.72
2022-11-13T02:09:12.597Z,102008.50
2022-11-13T02:11:39.522Z,102008.50
2022-11-13T02:14:08.461Z,102011.91
2022-11-13T02:16:37.789Z,102001.94
2022-11-13T02:19:10.265Z,102004.47
2022-11-13T02:21:59.578Z,101998.19
2022-11-13T02:24:29.590Z,102010.59
2022-11-13T02:27:01.771Z,102000.09
2022-11-13T02:29:28.101Z,102000.09
2022-11-13T02:31:54.488Z,101995.84
2022-11-13T02:34:20.878Z,101987.91
2022-11-13T02:36:47.757Z,101995.19
2022-11-13T02:39:14.608Z,101991.81
2022-11-13T02:41:41.176Z,101990.09
2022-11-13T02:44:08.330Z,101992.06
2022-11-13T02:46:35.070Z,101988.63
2022-11-13T02:49:01.535Z,101988.75
2022-11-13T02:51:27.984Z,101982.63
2022-11-13T02:53:54.927Z,101983.72
2022-11-13T02:56:21.297Z,101983.00
2022-11-13T02:58:47.840Z,101976.91
2022-11-13T03:01:14.214Z,101979.69
2022-11-13T03:03:57.103Z,101980.69
2022-11-13T03:06:24.405Z,101981.75
2022-11-13T03:08:50.766Z,101967.63
2022-11-13T03:11:17.179Z,101977.59
2022-11-13T03:13:43.529Z,101967.13
2022-11-13T03:16:13.018Z,101963.72
2022-11-13T03:18:39.680Z,101960.44
2022-11-13T03:21:11.414Z,101963.34
2022-11-13T03:23:38.684Z,101960.91
2022-11-13T03:26:07.518Z,101961.13
2022-11-13T03:28:34.981Z,101971.09
2022-11-13T03:31:01.418Z,101967.69
2022-11-13T03:33:27.917Z,101965.09
2022-11-13T03:35:54.676Z,101964.38
2022-11-13T03:38:21.325Z,101969.00
2022-11-13T03:40:47.865Z,101958.38
2022-11-13T03:43:14.299Z,101952.44
2022-11-13T03:45:40.675Z,101954.34
2022-11-13T03:48:07.093Z,101953.75
2022-11-13T03:50:33.514Z,101949.47
2022-11-13T03:52:59.929Z,101954.94
2022-11-13T03:55:26.327Z,101948.97
2022-11-13T03:57:52.651Z,101947.28
2022-11-13T04:00:19.021Z,101937.66
2022-11-13T04:02:45.354Z,101937.84
2022-11-13T04:05:11.801Z,101945.16
2022-11-13T04:07:38.145Z,101933.81
2022-11-13T04:10:05.111Z,101937.47
2022-11-13T04:12:31.481Z,101930.63
2022-11-13T04:14:57.836Z,101934.38
2022-11-13T04:17:24.241Z,101927.44
2022-11-13T04:19:50.661Z,101934.84
2022-11-13T04:22:17.147Z,101932.47
2022-11-13T04:24:43.514Z,101932.69
2022-11-13T04:27:09.925Z,101924.91
2022-11-13T04:29:36.303Z,101930.47
2022-11-13T04:32:02.644Z,101939.59
2022-11-13T04:34:28.973Z,101925.56
2022-11-13T04:36:55.537Z,101926.78
2022-11-13T04:39:21.885Z,101918.97
2022-11-13T04:42:06.945Z,101919.22
2022-11-13T04:44:33.351Z,101914.19
2022-11-13T04:46:59.673Z,101910.88
2022-11-13T04:49:26.045Z,101912.16
2022-11-13T04:51:52.377Z,101914.22
2022-11-13T04:54:18.825Z,101915.38
2022-11-13T04:56:45.374Z,101910.28
2022-11-13T04:59:11.798Z,101904.31
2022-11-13T05:01:38.522Z,101906.31
2022-11-13T05:04:05.319Z,101895.84
2022-11-13T05:06:31.725Z,101899.50
2022-11-13T05:08:58.227Z,101885.53
2022-11-13T05:11:24.545Z,101890.00
2022-11-13T05:13:50.893Z,101886.59
2022-11-13T05:16:17.304Z,101877.84
2022-11-13T05:18:43.641Z,101884.13
2022-11-13T05:21:10.072Z,101881.56
2022-11-13T05:23:36.810Z,101879.97
2022-11-13T05:26:11.717Z,101877.41
2022-11-13T05:28:39.203Z,101874.88
2022-11-13T05:31:07.714Z,101873.13
2022-11-13T05:33:34.884Z,101870.47
2022-11-13T05:36:06.749Z,101865.88
2022-11-13T05:38:34.063Z,101867.56
2022-11-13T05:41:05.600Z,101869.06
2022-11-13T05:43:32.563Z,101868.09
2022-11-13T05:46:12.278Z,101873.13
2022-11-13T05:48:39.518Z,101868.44
2022-11-13T05:51:08.890Z,101862.88
2022-11-13T05:53:36.574Z,101856.31
2022-11-13T05:56:06.099Z,101854.28
2022-11-13T05:58:32.989Z,101855.75
2022-11-13T06:01:30.257Z,101853.50
2022-11-13T06:03:57.893Z,101845.28
2022-11-13T06:06:25.837Z,101849.41
2022-11-13T06:08:54.269Z,101840.22
2022-11-13T06:11:23.342Z,101834.75
2022-11-13T06:13:51.197Z,101837.31
2022-11-13T06:16:23.490Z,101831.97
2022-11-13T06:18:50.888Z,101835.72
2022-11-13T06:21:20.579Z,101831.34
2022-11-13T06:23:47.330Z,101834.34
2022-11-13T06:26:22.649Z,101831.06
2022-11-13T06:28:49.113Z,101830.41
2022-11-13T06:31:21.995Z,101831.63
2022-11-13T06:33:48.810Z,101831.19
2022-11-13T06:36:18.574Z,101832.50
2022-11-13T06:38:45.181Z,101823.97
2022-11-13T06:41:13.604Z,101830.59
2022-11-13T06:43:40.356Z,101821.22
2022-11-13T06:46:10.541Z,101825.94
2022-11-13T06:48:37.033Z,101828.94
2022-11-13T06:51:15.354Z,101817.72
2022-11-13T06:53:42.382Z,101833.09
2022-11-13T06:56:09.658Z,101834.16
2022-11-13T06:58:36.155Z,101821.03
2022-11-13T07:01:10.675Z,101816.78
2022-11-13T07:03:37.511Z,101814.22
2022-11-13T07:06:05.726Z,101814.34
2022-11-13T07:08:32.391Z,101809.97
2022-11-13T07:10:59.213Z,101805.47
2022-11-13T07:13:27.262Z,101801.81
2022-11-13T07:15:54.009Z,101796.41
2022-11-13T07:18:24.162Z,101793.72
2022-11-13T07:20:50.810Z,101799.81
2022-11-13T07:23:17.179Z,101801.41
2022-11-13T07:25:43.521Z,101798.63
2022-11-13T07:28:09.953Z,101802.03
2022-11-13T07:30:36.279Z,101805.31
2022-11-13T07:33:04.306Z,101797.97
2022-11-13T07:35:31.035Z,101799.44
2022-11-13T07:37:58.005Z,101793.78
2022-11-13T07:40:24.596Z,101795.13
2022-11-13T07:43:01.928Z,101794.59
2022-11-13T07:45:29.161Z,101799.59
2022-11-13T07:47:59.938Z,101800.88
2022-11-13T07:50:31.042Z,101799.56
2022-11-13T07:53:03.407Z,101791.81
2022-11-13T07:55:30.153Z,101791.34
2022-11-13T07:57:58.498Z,101794.44
2022-11-13T08:00:29.367Z,101795.56
2022-11-13T08:02:56.226Z,101787.94
2022-11-13T08:05:23.274Z,101784.66
2022-11-13T08:07:51.666Z,101780.50
2022-11-13T08:10:19.982Z,101780.88
2022-11-13T08:12:47.312Z,101774.94
2022-11-13T08:15:16.926Z,101783.34
2022-11-13T08:17:43.306Z,101784.69
2022-11-13T08:20:10.393Z,101784.09
2022-11-13T08:22:36.721Z,101781.69
2022-11-13T08:25:03.682Z,101777.56
2022-11-13T08:27:30.177Z,101770.63
2022-11-13T08:29:56.501Z,101773.44
2022-11-13T08:32:22.858Z,101772.59
2022-11-13T08:34:49.447Z,101770.88
2022-11-13T08:37:16.041Z,101770.72
2022-11-13T08:39:42.434Z,101768.75
2022-11-13T08:42:08.766Z,101766.53
2022-11-13T08:44:35.129Z,101761.63
2022-11-13T08:47:01.518Z,101758.25
2022-11-13T08:49:27.862Z,101756.75
2022-11-13T08:51:54.198Z,101750.66
2022-11-13T08:54:20.874Z,101750.78
2022-11-13T08:56:54.468Z,101761.63
2022-11-13T08:59:23.693Z,101753.66
2022-11-13T09:01:50.458Z,101745.97
2022-11-13T09:04:16.793Z,101749.00
2022-11-13T09:06:43.198Z,101748.47
2022-11-13T09:09:09.633Z,101741.84
2022-11-13T09:11:36.172Z,101748.78
2022-11-13T09:14:02.550Z,101749.25
2022-11-13T09:16:29.091Z,101745.44
2022-11-13T09:18:55.500Z,101746.16
2022-11-13T09:21:21.837Z,101742.31
2022-11-13T09:23:48.159Z,101735.91
2022-11-13T09:26:14.546Z,101738.31
2022-11-13T09:28:40.877Z,101739.97
2022-11-13T09:31:07.599Z,101736.13
2022-11-13T09:33:34.241Z,101731.56
2022-11-13T09:36:00.811Z,101734.06
2022-11-13T09:38:29.810Z,101736.56
2022-11-13T09:41:04.796Z,101729.16
2022-11-13T09:43:36.666Z,101731.69
2022-11-13T09:46:08.726Z,101737.03
2022-11-13T09:48:41.697Z,101734.28
2022-11-13T09:51:29.554Z,101734.91
2022-11-13T09:53:56.213Z,101728.56
2022-11-13T09:56:28.119Z,101719.44
2022-11-13T09:59:23.817Z,101731.69
2022-11-13T10:02:28.782Z,101720.34
2022-11-13T10:05:13.454Z,101718.09
2022-11-13T10:07:48.516Z,101710.75
2022-11-13T10:10:33.296Z,101703.25
2022-11-13T10:13:00.824Z,101694.06
2022-11-13T10:15:27.772Z,101689.41
2022-11-13T10:18:00.440Z,101678.31
2022-11-13T10:20:55.642Z,101682.44
2022-11-13T10:23:28.095Z,101682.81
2022-11-13T10:25:58.353Z,101671.88
2022-11-13T10:28:49.562Z,101669.91
2022-11-13T10:31:14.401Z,101672.28
2022-11-13T10:33:40.730Z,101667.59
2022-11-13T10:36:28.551Z,101665.41
2022-11-13T10:39:02.896Z,101666.09
2022-11-13T10:41:29.414Z,101653.63
2022-11-13T10:44:04.419Z,101651.25
2022-11-13T10:46:31.593Z,101651.25
2022-11-13T10:48:58.669Z,101647.53
2022-11-13T10:51:28.777Z,101644.63
2022-11-13T10:53:55.782Z,101632.13
2022-11-13T10:56:26.423Z,101628.38
2022-11-13T10:59:11.434Z,101636.31
2022-11-13T11:01:38.913Z,101626.47
2022-11-13T11:04:21.493Z,101627.13
2022-11-13T11:07:18.419Z,101618.28
2022-11-13T11:09:38.367Z,101613.50
2022-11-13T11:12:17.208Z,101603.88
2022-11-13T11:14:58.976Z,101603.66
2022-11-13T11:17:51.347Z,101591.94
2022-11-13T11:20:35.593Z,101601.03
2022-11-13T11:23:37.134Z,101589.28
2022-11-13T11:26:13.767Z,101588.41
2022-11-13T11:29:00.311Z,101586.00
2022-11-13T11:31:41.975Z,101585.09
2022-11-13T11:34:42.001Z,101570.81
2022-11-13T11:37:19.421Z,101568.59
2022-11-13T11:39:54.813Z,101562.44
2022-11-13T11:42:26.701Z,101557.28
2022-11-13T11:45:16.233Z,101568.28
2022-11-13T11:47:43.427Z,101565.38
2022-11-13T11:50:14.630Z,101557.53
2022-11-13T11:52:56.508Z,101559.50
2022-11-13T11:55:37.298Z,101557.97
2022-11-13T11:58:29.154Z,101548.25
2022-11-13T12:01:05.816Z,101551.06
2022-11-13T12:03:38.096Z,101532.53
2022-11-13T12:06:26.415Z,101538.06
2022-11-13T12:09:10.162Z,101531.88
2022-11-13T12:11:51.440Z,101535.91
2022-11-13T12:14:48.212Z,101531.81
2022-11-13T12:17:38.124Z,101533.31
2022-11-13T12:20:26.368Z,101514.91
2022-11-13T12:23:11.004Z,101521.22
2022-11-13T12:25:53.028Z,101519.34
2022-11-13T12:28:42.860Z,101512.03
2022-11-13T12:31:39.268Z,101506.59
2022-11-13T12:34:29.827Z,101513.69
2022-11-13T12:36:58.414Z,101508.28
2022-11-13T12:39:40.910Z,101513.31
2022-11-13T12:42:29.328Z,101509.59
2022-11-13T12:45:16.727Z,101509.38
2022-11-13T12:47:43.377Z,101506.50
2022-11-13T12:50:32.212Z,101507.16
2022-11-13T12:53:11.133Z,101495.91
2022-11-13T12:55:39.667Z,101498.44
2022-11-13T12:58:09.465Z,101497.22
2022-11-13T13:00:41.181Z,101495.13
2022-11-13T13:03:21.453Z,101486.81
2022-11-13T13:06:03.142Z,101483.03
2022-11-13T13:08:47.873Z,101487.25
2022-11-13T13:11:23.135Z,101477.72
2022-11-13T13:14:04.101Z,101471.06
2022-11-13T13:16:30.514Z,101472.53
2022-11-13T13:19:32.549Z,101472.16
2022-11-13T13:21:59.052Z,101468.41
2022-11-13T13:24:37.166Z,101456.13
2022-11-13T13:27:22.040Z,101465.09
2022-11-13T13:29:48.374Z,101456.94
2022-11-13T13:32:23.630Z,101456.78
2022-11-13T13:34:59.328Z,101453.00
2022-11-13T13:37:38.292Z,101450.28
2022-11-13T13:40:13.671Z,101440.25
2022-11-13T13:42:58.398Z,101439.41
2022-11-13T13:45:43.214Z,101432.50
2022-11-13T13:48:12.389Z,101440.66
2022-11-13T13:50:44.406Z,101441.88
2022-11-13T13:53:15.155Z,101439.16
2022-11-13T13:55:48.643Z,101433.06
2022-11-13T13:58:19.280Z,101434.28
2022-11-13T14:01:17.049Z,101421.75
2022-11-13T14:03:42.505Z,101421.56
2022-11-13T14:06:29.195Z,101431.78
2022-11-13T14:08:55.565Z,101426.09
2022-11-13T14:11:29.387Z,101416.63
2022-11-13T14:14:07.002Z,101408.19
2022-11-13T14:16:33.713Z,101411.50
2022-11-13T14:19:05.205Z,101411.03
2022-11-13T14:21:31.873Z,101394.47
2022-11-13T14:24:02.368Z,101394.66
2022-11-13T14:26:29.505Z,101391.69
2022-11-13T14:28:59.966Z,101384.75
2022-11-13T14:31:30.178Z,101390.75
2022-11-13T14:34:00.066Z,101392.16
2022-11-13T14:36:31.409Z,101392.75
2022-11-13T14:38:59.019Z,101387.69
2022-11-13T14:41:34.181Z,101384.88
2022-11-13T14:44:00.678Z,101385.66
2022-11-13T14:46:45.698Z,101389.75
2022-11-13T14:49:15.301Z,101385.09
2022-11-13T14:51:41.889Z,101388.72
2022-11-13T14:54:33.822Z,101382.16
2022-11-13T14:57:10.613Z,101378.69
2022-11-13T14:59:38.402Z,101372.53
2022-11-13T15:02:05.163Z,101379.25
2022-11-13T15:04:35.266Z,101392.22
2022-11-13T15:07:26.693Z,101387.28
2022-11-13T15:09:53.486Z,101383.31
2022-11-13T15:12:19.920Z,101384.78
2022-11-13T15:14:46.309Z,101386.03
2022-11-13T15:17:16.673Z,101381.84
2022-11-13T15:19:43.607Z,101387.91
2022-11-13T15:22:26.711Z,101387.28
2022-11-13T15:24:54.308Z,101386.16
2022-11-13T15:27:20.725Z,101376.09
2022-11-13T15:29:47.069Z,101368.56
2022-11-13T15:32:15.183Z,101370.84
2022-11-13T15:34:41.908Z,101369.53
2022-11-13T15:37:11.680Z,101364.50
2022-11-13T15:39:38.045Z,101364.19
2022-11-13T15:42:07.897Z,101369.63
2022-11-13T15:44:34.214Z,101369.28
2022-11-13T15:47:00.675Z,101357.84
2022-11-13T15:49:27.535Z,101350.06
2022-11-13T15:51:53.905Z,101353.97
2022-11-13T15:54:33.447Z,101364.13
2022-11-13T15:56:59.978Z,101365.50
2022-11-13T15:59:26.336Z,101362.94
2022-11-13T16:01:56.942Z,101359.56
2022-11-13T16:04:26.720Z,101352.47
2022-11-13T16:07:17.592Z,101348.88
2022-11-13T16:09:45.202Z,101349.06
2022-11-13T16:12:12.843Z,101356.25
2022-11-13T16:14:40.214Z,101354.38
2022-11-13T16:17:20.829Z,101340.03
2022-11-13T16:19:53.045Z,101350.97
2022-11-13T16:22:24.389Z,101359.88
2022-11-13T16:24:50.745Z,101357.16
2022-11-13T16:27:29.179Z,101344.47
2022-11-13T16:29:55.631Z,101363.16
2022-11-13T16:32:22.390Z,101362.44
2022-11-13T16:34:49.106Z,101371.19
2022-11-13T16:37:20.438Z,101368.13
2022-11-13T16:39:47.015Z,101372.44
2022-11-13T16:42:14.682Z,101372.25
2022-11-13T16:44:41.458Z,101375.56
2022-11-13T16:47:20.916Z,101366.25
2022-11-13T16:49:47.390Z,101371.56
2022-11-13T16:52:13.727Z,101366.13
2022-11-13T16:54:40.097Z,101359.84
2022-11-13T16:57:08.768Z,101360.47
2022-11-13T16:59:35.099Z,101356.88
2022-11-13T17:02:01.687Z,101357.63
2022-11-13T17:04:28.240Z,101358.56
2022-11-13T17:06:57.760Z,101362.88
2022-11-13T17:09:24.418Z,101344.97
2022-11-13T17:11:50.885Z,101340.50
2022-11-13T17:14:17.298Z,101349.34
2022-11-13T17:16:43.673Z,101344.72
2022-11-13T17:19:13.651Z,101344.78
2022-11-13T17:21:44.125Z,101335.94
2022-11-13T17:24:10.943Z,101326.25
2022-11-13T17:26:37.274Z,101318.22
2022-11-13T17:29:05.669Z,101332.72
2022-11-13T17:31:32.317Z,101324.81
2022-11-13T17:33:58.738Z,101319.53
2022-11-13T17:36:25.224Z,101324.94
2022-11-13T17:38:51.614Z,101328.66
2022-11-13T17:41:18.129Z,101320.75
2022-11-13T17:43:44.637Z,101316.56
2022-11-13T17:46:14.416Z,101315.88
2022-11-13T17:48:41.628Z,101318.72
2022-11-13T17:51:12.121Z,101321.41
2022-11-13T17:53:38.534Z,101325.09
2022-11-13T17:56:08.048Z,101329.63
2022-11-13T17:58:41.534Z,101339.53
2022-11-13T18:01:11.190Z,101329.63
2022-11-13T18:03:38.153Z,101337.53
2022-11-13T18:06:11.219Z,101330.03
2022-11-13T18:08:41.313Z,101332.41
2022-11-13T18:11:15.550Z,101331.13
2022-11-13T18:13:43.017Z,101330.69
2022-11-13T18:16:12.808Z,101318.69
2022-11-13T18:18:39.433Z,101313.75
2022-11-13T18:21:22.420Z,101316.84
2022-11-13T18:23:55.383Z,101308.63
2022-11-13T18:26:21.706Z,101309.19
2022-11-13T18:28:48.060Z,101305.34
2022-11-13T18:31:17.728Z,101311.28
2022-11-13T18:33:44.748Z,101319.97
2022-11-13T18:36:11.421Z,101316.97
2022-11-13T18:38:37.910Z,101317.53
2022-11-13T18:41:18.586Z,101306.53
2022-11-13T18:43:46.653Z,101305.09
2022-11-13T18:46:14.575Z,101305.47
2022-11-13T18:48:43.717Z,101307.59
2022-11-13T18:51:14.814Z,101306.16
2022-11-13T18:53:43.645Z,101295.72
2022-11-13T18:56:34.441Z,101299.50
2022-11-13T18:59:00.878Z,101286.41
2022-11-13T19:01:30.847Z,101296.38
2022-11-13T19:04:21.762Z,101288.63
2022-11-13T19:06:49.325Z,101279.03
2022-11-13T19:09:16.945Z,101285.50
2022-11-13T19:11:43.751Z,101265.19
2022-11-13T19:14:13.822Z,101265.47
2022-11-13T19:16:40.275Z,101256.72
2022-11-13T19:19:19.683Z,101266.00
2022-11-13T19:21:46.615Z,101265.28
2022-11-13T19:24:14.647Z,101262.88
2022-11-13T19:26:42.441Z,101265.81
2022-11-13T19:29:08.857Z,101281.16
2022-11-13T19:31:35.350Z,101280.31
2022-11-13T19:34:04.729Z,101282.13
2022-11-13T19:36:32.062Z,101285.78
2022-11-13T19:38:59.079Z,101278.59
2022-11-13T19:41:27.922Z,101284.78
2022-11-13T19:43:55.093Z,101278.59
2022-11-13T19:46:21.696Z,101283.94
2022-11-13T19:48:49.544Z,101276.06
2022-11-13T19:51:19.174Z,101282.38
2022-11-13T19:53:46.342Z,101283.38
2022-11-13T19:56:23.134Z,101277.28
2022-11-13T19:58:51.198Z,101283.91
2022-11-13T20:01:23.421Z,101279.66
2022-11-13T20:03:54.634Z,101273.72
2022-11-13T20:06:21.577Z,101271.41
2022-11-13T20:08:48.177Z,101276.19
2022-11-13T20:11:18.063Z,101279.13
2022-11-13T20:13:44.741Z,101268.81
2022-11-13T20:16:14.041Z,101274.41
2022-11-13T20:18:42.448Z,101268.47
2022-11-13T20:21:09.582Z,101260.81
2022-11-13T20:23:36.549Z,101267.28
2022-11-13T20:26:05.935Z,101267.38
2022-11-13T20:28:32.652Z,101266.94
2022-11-13T20:31:02.975Z,101265.34
2022-11-13T20:33:34.599Z,101253.09
2022-11-13T20:36:02.469Z,101252.53
2022-11-13T20:38:29.752Z,101241.09
2022-11-13T20:40:56.391Z,101251.09
2022-11-13T20:43:22.987Z,101248.66
2022-11-13T20:45:49.667Z,101240.63
2022-11-13T20:48:16.111Z,101236.41
2022-11-13T20:50:42.568Z,101230.34
2022-11-13T20:53:09.162Z,101219.78
2022-11-13T20:55:35.552Z,101233.25
2022-11-13T20:58:04.297Z,101220.88
2022-11-13T21:00:31.043Z,101226.22
2022-11-13T21:05:38.903Z,101225.66
2022-11-13T21:08:05.433Z,101215.22
2022-11-13T21:10:33.573Z,101220.56
2022-11-13T21:13:00.033Z,101208.41
2022-11-13T21:15:26.480Z,101203.34
2022-11-13T21:17:53.015Z,101210.50
2022-11-13T21:20:19.463Z,101202.63
2022-11-13T21:22:45.886Z,101200.94
2022-11-13T21:25:12.424Z,101200.94
2022-11-13T21:27:38.844Z,101198.25
2022-11-13T21:30:05.961Z,101199.22
2022-11-13T21:32:32.436Z,101198.38
2022-11-13T21:35:34.604Z,101193.88
2022-11-13T21:38:05.234Z,101185.03
2022-11-13T21:40:31.653Z,101193.16
2022-11-13T21:42:58.050Z,101186.13
2022-11-13T21:45:24.505Z,101188.06
2022-11-13T21:47:52.648Z,101177.38
2022-11-13T21:50:19.130Z,101177.38
2022-11-13T21:52:45.551Z,101173.75
2022-11-13T21:55:11.936Z,101169.25
2022-11-13T21:57:38.245Z,101167.44
2022-11-13T22:00:05.410Z,101158.44
2022-11-13T22:02:31.897Z,101156.63
2022-11-13T22:04:58.269Z,101167.31
2022-11-13T22:07:24.792Z,101161.97
2022-11-13T22:09:51.149Z,101146.91
2022-11-13T22:12:17.465Z,101141.56
2022-11-13T22:14:43.849Z,101150.41
2022-11-13T22:17:10.216Z,101148.72
2022-11-13T22:19:36.721Z,101151.28
2022-11-13T22:22:03.278Z,101136.94
2022-11-13T22:24:30.698Z,101139.50
2022-11-13T22:26:57.095Z,101141.19
2022-11-13T22:29:23.458Z,101140.34
2022-11-13T22:31:49.807Z,101140.34
2022-11-13T22:34:16.145Z,101135.72
2022-11-13T22:36:42.490Z,101137.53
2022-11-13T22:39:08.920Z,101137.53
2022-11-13T22:41:36.423Z,101121.50
2022-11-13T22:44:11.528Z,101126.84
2022-11-13T22:46:38.143Z,101123.31
2022-11-13T22:49:05.984Z,101120.66
2022-11-13T22:51:38.455Z,101123.47
2022-11-13T22:54:14.097Z,101119.94
2022-11-13T22:56:41.272Z,101116.56
2022-11-13T22:59:10.879Z,101113.03
2022-11-13T23:01:38.772Z,101098.97
2022-11-13T23:04:07.870Z,101106.25
2022-11-13T23:06:35.508Z,101108.09
2022-11-13T23:09:03.336Z,101105.53
2022-11-13T23:11:33.168Z,101104.81
2022-11-13T23:14:02.156Z,101105.91
2022-11-13T23:16:30.065Z,101097.06
2022-11-13T23:18:58.250Z,101089.31
2022-11-13T23:21:26.241Z,101086.75
2022-11-13T23:23:53.656Z,101080.56
2022-11-13T23:26:20.901Z,101087.03
2022-11-13T23:28:47.392Z,101088.13
2022-11-13T23:31:13.889Z,101075.88
2022-11-13T23:33:40.881Z,101074.31
2022-11-13T23:36:09.393Z,101074.31
2022-11-13T23:38:36.149Z,101059.41
2022-11-13T23:41:02.697Z,101068.41
2022-11-13T23:43:54.197Z,101058.81
2022-11-13T23:46:16.662Z,101054.47
2022-11-13T23:48:43.019Z,101054.47
2022-11-13T23:51:09.362Z,101058.25
2022-11-13T23:53:35.818Z,101057.38
2022-11-13T23:56:02.212Z,101054.84
2022-11-13T23:58:29.006Z,101051.34
